Fournier Brothers — WDG5150 — position and weather

sailwx.info

Track history (hours):
 
Tides and Currents Weather Stations Pressure Air Temp Water Temp Dewpoint Dewpoint Depression Visibility Wind Speed Wind Dir Waves Ship Positions

Fournier Brothers

Owner: Canal Towing, Belfast, ME. More information available from US FCC via Universal Licensing System and Coast Guard Vessel Documentation Center.

Last reported at 2018-Mar-18 02:27 UTC. Time now 2018-Apr-21 00:25 UTC.
Position N 44°17' W 068°58'.
Warning: this ship's position is 33 days out of date.

; draft 4.2 m.

Type: Tug. MMSI: 367543820.

Date/timePositionNaut miles runAvg speedWind from/ knotsBaromVisibWave heightAir tempDewpointWater temp
2018-Mar-18 02:27N 44°17' W 068°58'4 9.4
2018-Mar-18 02:00N 44°13' W 069°00'510.2
2018-Mar-18 01:29N 44°08' W 069°01'510.3
2018-Mar-18 01:00N 44°03' W 069°01'4 8.3
2018-Mar-18 00:30N 43°59' W 069°00'5 9.5
2018-Mar-17 23:59N 44°04' W 069°00'5 9.2
2018-Mar-17 23:29N 44°08' W 069°01'5 9.6
2018-Mar-17 22:59N 44°13' W 069°00'  
2018-Mar-15 12:09N 44°14' W 068°60'1 6.9
2018-Mar-15 12:00N 44°13' W 069°00'3 6.6
2018-Mar-15 11:30N 44°10' W 069°00'3 6.5
2018-Mar-15 11:00N 44°07' W 069°00'3 6.3
2018-Mar-15 10:30N 44°03' W 069°00'3 5.0
2018-Mar-15 10:00N 44°01' W 068°60'2 4.8
2018-Mar-15 09:30N 43°59' W 068°58'2 4.5
2018-Mar-15 08:59N 43°57' W 068°55'2 4.1
2018-Mar-15 08:30N 43°56' W 068°54'2 4.2
2018-Mar-15 07:58N 43°56' W 068°51'3 5.3
2018-Mar-15 07:26N 43°58' W 068°53'3 6.1
2018-Mar-15 06:57N 43°60' W 068°56'3 5.6
2018-Mar-15 06:29N 44°02' W 068°58'3 5.5
2018-Mar-15 06:00N 44°04' W 068°60'5 8.9
2018-Mar-15 05:30N 44°09' W 069°00'5 9.4
2018-Mar-15 05:00N 44°13' W 069°00'  
Track history (hours):
 
Tides and Currents Weather Stations Pressure Air Temp Water Temp Dewpoint Dewpoint Depression Visibility Wind Speed Wind Dir Waves Ship Positions

Fournier Brothers

Owner: Canal Towing, Belfast, ME. More information available from US FCC via Universal Licensing System and Coast Guard Vessel Documentation Center.

Last reported at 2018-Mar-18 02:27 UTC. Time now 2018-Apr-21 00:25 UTC.
Position N 44°17' W 068°58'.
Warning: this ship's position is 33 days out of date.

; draft 4.2 m.

Type: Tug. MMSI: 367543820.

Date/timePositionNaut miles runAvg speedWind from/ knotsBaromVisibWave heightAir tempDewpointWater temp
2018-Mar-18 02:27N 44°17' W 068°58'4 9.4
2018-Mar-18 02:00N 44°13' W 069°00'510.2
2018-Mar-18 01:29N 44°08' W 069°01'510.3
2018-Mar-18 01:00N 44°03' W 069°01'4 8.3
2018-Mar-18 00:30N 43°59' W 069°00'5 9.5
2018-Mar-17 23:59N 44°04' W 069°00'5 9.2
2018-Mar-17 23:29N 44°08' W 069°01'5 9.6
2018-Mar-17 22:59N 44°13' W 069°00'  
2018-Mar-15 12:09N 44°14' W 068°60'1 6.9
2018-Mar-15 12:00N 44°13' W 069°00'3 6.6
2018-Mar-15 11:30N 44°10' W 069°00'3 6.5
2018-Mar-15 11:00N 44°07' W 069°00'3 6.3
2018-Mar-15 10:30N 44°03' W 069°00'3 5.0
2018-Mar-15 10:00N 44°01' W 068°60'2 4.8
2018-Mar-15 09:30N 43°59' W 068°58'2 4.5
2018-Mar-15 08:59N 43°57' W 068°55'2 4.1
2018-Mar-15 08:30N 43°56' W 068°54'2 4.2
2018-Mar-15 07:58N 43°56' W 068°51'3 5.3
2018-Mar-15 07:26N 43°58' W 068°53'3 6.1
2018-Mar-15 06:57N 43°60' W 068°56'3 5.6
2018-Mar-15 06:29N 44°02' W 068°58'3 5.5
2018-Mar-15 06:00N 44°04' W 068°60'5 8.9
2018-Mar-15 05:30N 44°09' W 069°00'5 9.4
2018-Mar-15 05:00N 44°13' W 069°00'  

Dump ship's entire track history